Time;durP1;ratioP1;P1;durP2;ratioP2;P2;SDS_P1;SDS_P2;PMS_P1;PMS_P2;Temp;Humidity;BMP_temperature;BMP_pressure;BME280_temperature;BME280_humidity;BME280_pressure;Samples;Min_cycle;Max_cycle;Signal;HPM_P1;HPM_P2
2023/04/16 00:00:38;;;;;;;0.80;0.80;;;;;;;10.13;79.78;96570.41;4985413;28;20062;-62
2023/04/16 00:03:05;;;;;;;0.75;0.75;;;;;;;10.06;80.22;96548.97;4985882;28;20422;-61
2023/04/16 00:05:32;;;;;;;0.80;0.80;;;;;;;10.08;80.19;96551.38;4983767;28;20097;-62
2023/04/16 00:07:58;;;;;;;0.90;0.90;;;;;;;10.20;79.66;96543.63;4985558;28;20061;-61
2023/04/16 00:10:25;;;;;;;0.80;0.80;;;;;;;10.36;79.08;96548.91;4985376;28;20503;-60
2023/04/16 00:12:52;;;;;;;0.90;0.90;;;;;;;10.39;78.36;96546.19;4984073;28;20054;-62
2023/04/16 00:15:18;;;;;;;0.80;0.80;;;;;;;9.76;78.66;96445.91;4984756;28;20063;-61
2023/04/16 00:17:45;;;;;;;0.90;0.90;;;;;;;10.27;78.79;96557.53;4985596;28;20062;-62
2023/04/16 00:20:12;;;;;;;0.82;0.82;;;;;;;10.17;78.02;96499.28;4983864;28;20061;-61
2023/04/16 00:22:38;;;;;;;0.80;0.80;;;;;;;10.61;77.40;96539.66;4985773;28;20058;-61
2023/04/16 00:25:05;;;;;;;0.90;0.90;;;;;;;10.49;77.27;96539.94;4985228;28;20425;-60
2023/04/16 00:27:32;;;;;;;0.80;0.80;;;;;;;10.25;76.93;96490.69;4983584;28;20051;-61
2023/04/16 00:29:59;;;;;;;0.80;0.80;;;;;;;10.55;77.40;96538.41;4984936;28;20054;-62
2023/04/16 00:32:25;;;;;;;0.90;0.90;;;;;;;10.13;77.59;96488.19;4984911;28;20042;-61
2023/04/16 00:34:52;;;;;;;0.77;0.77;;;;;;;9.78;77.67;96424.19;4984883;28;20042;-61
2023/04/16 00:37:18;;;;;;;0.88;0.88;;;;;;;10.50;77.34;96536.00;4985184;28;20113;-60
2023/04/16 00:39:45;;;;;;;0.90;0.90;;;;;;;10.42;77.57;96526.03;4983217;28;20065;-62
2023/04/16 00:42:12;;;;;;;0.80;0.80;;;;;;;10.60;77.01;96529.75;4985182;28;20065;-60
2023/04/16 00:44:38;;;;;;;0.85;0.85;;;;;;;10.50;77.29;96533.22;4983185;28;20054;-61
2023/04/16 00:47:06;;;;;;;0.80;0.80;;;;;;;10.58;76.82;96532.13;4984900;28;20084;-61
2023/04/16 00:49:33;;;;;;;0.80;0.80;;;;;;;10.61;76.68;96527.78;4983057;28;20448;-61
2023/04/16 00:52:02;;;;;;;0.80;0.80;;;;;;;10.48;77.30;96538.34;4984847;28;20577;-62
2023/04/16 00:54:30;;;;;;;0.90;0.90;;;;;;;10.48;76.79;96532.81;4983356;28;20087;-61
2023/04/16 00:56:58;;;;;;;0.90;0.90;;;;;;;10.58;76.62;96529.34;4983506;28;20689;-62
2023/04/16 00:59:25;;;;;;;0.90;0.90;;;;;;;10.40;76.77;96514.53;4999521;28;20062;-61
2023/04/16 01:01:52;;;;;;;0.80;0.80;;;;;;;10.05;77.16;96475.41;4984686;28;20410;-62
2023/04/16 01:04:20;;;;;;;0.80;0.80;;;;;;;10.18;78.08;96518.28;4984616;28;20058;-63
2023/04/16 01:06:47;;;;;;;0.80;0.80;;;;;;;10.24;78.77;96541.66;4984650;28;20072;-62
2023/04/16 01:09:13;;;;;;;0.80;0.80;;;;;;;10.32;78.50;96534.25;4984499;28;20539;-63
2023/04/16 01:11:40;;;;;;;0.80;0.80;;;;;;;10.14;78.68;96528.53;4984330;28;20092;-61
2023/04/16 01:14:06;;;;;;;0.80;0.80;;;;;;;10.06;79.33;96510.22;4984404;28;20136;-63
2023/04/16 01:16:33;;;;;;;0.80;0.80;;;;;;;9.86;79.01;96472.88;4984592;28;20196;-60
2023/04/16 01:19:00;;;;;;;0.80;0.80;;;;;;;10.02;78.57;96470.66;4984551;28;20085;-63
2023/04/16 01:21:26;;;;;;;0.80;0.80;;;;;;;10.46;77.36;96524.06;4984488;28;20328;-60
2023/04/16 01:23:53;;;;;;;0.80;0.80;;;;;;;10.39;77.79;96529.56;4982966;28;20086;-61
2023/04/16 01:26:20;;;;;;;0.80;0.80;;;;;;;10.42;77.60;96528.81;4982731;28;20506;-60
2023/04/16 01:28:47;;;;;;;0.80;0.80;;;;;;;10.50;77.80;96526.88;4984556;28;20054;-60
2023/04/16 01:31:13;;;;;;;0.80;0.80;;;;;;;10.47;77.62;96525.69;4984500;28;20062;-60
2023/04/16 01:33:40;;;;;;;0.70;0.70;;;;;;;10.50;77.81;96530.47;4984303;28;20137;-61
2023/04/16 01:36:06;;;;;;;0.90;0.90;;;;;;;10.47;78.33;96535.97;4984622;28;20124;-62
2023/04/16 01:38:33;;;;;;;0.80;0.80;;;;;;;10.22;78.16;96491.44;4984373;28;20066;-60
2023/04/16 01:41:00;;;;;;;0.80;0.80;;;;;;;10.51;78.09;96532.03;4984342;28;20112;-61
2023/04/16 01:43:27;;;;;;;0.90;0.90;;;;;;;10.58;78.16;96536.84;4982609;28;20081;-61
2023/04/16 01:46:10;;;;;;;0.80;0.80;;;;;;;10.60;78.72;96535.31;4983725;28;20461;-64
2023/04/16 01:48:37;;;;;;;0.80;0.80;;;;;;;9.59;78.33;96405.03;4984208;28;20089;-61
2023/04/16 01:51:04;;;;;;;0.80;0.80;;;;;;;9.17;78.58;96346.53;4982408;28;20054;-62
2023/04/16 01:53:31;;;;;;;0.80;0.80;;;;;;;9.97;78.39;96479.31;4984216;28;20597;-61
2023/04/16 01:55:57;;;;;;;0.90;0.90;;;;;;;10.29;79.47;96541.31;4985052;28;20569;-61
2023/04/16 01:58:24;;;;;;;0.82;0.82;;;;;;;10.04;78.91;96468.31;4986358;28;20054;-62
2023/04/16 02:00:50;;;;;;;0.90;0.90;;;;;;;10.01;78.87;96468.25;4987755;28;20140;-61
2023/04/16 02:03:17;;;;;;;0.80;0.80;;;;;;;9.86;78.50;96427.81;4988175;28;20058;-62
2023/04/16 02:05:44;;;;;;;0.80;0.80;;;;;;;10.51;77.76;96532.03;4988140;28;20058;-61
2023/04/16 02:08:11;;;;;;;0.80;0.80;;;;;;;10.16;78.22;96475.56;4987835;28;20108;-61
2023/04/16 02:10:37;;;;;;;0.90;0.90;;;;;;;10.00;77.05;96434.28;4986007;28;20114;-61
2023/04/16 02:13:04;;;;;;;0.80;0.80;;;;;;;10.59;77.34;96533.69;4986005;28;20528;-61
2023/04/16 02:15:30;;;;;;;0.80;0.80;;;;;;;9.90;78.38;96440.50;4987493;28;20892;-61
2023/04/16 02:17:57;;;;;;;0.80;0.80;;;;;;;10.20;78.42;96479.97;4983193;28;20081;-61
2023/04/16 02:20:24;;;;;;;0.80;0.80;;;;;;;10.24;77.55;96477.22;4983674;28;20050;-60
2023/04/16 02:22:51;;;;;;;0.80;0.80;;;;;;;9.93;78.21;96444.47;4980649;28;20595;-60
2023/04/16 02:25:17;;;;;;;0.80;0.80;;;;;;;9.70;78.25;96447.41;5005365;28;20064;-60
2023/04/16 02:27:44;;;;;;;0.85;0.85;;;;;;;10.08;78.62;96491.31;5007072;28;20678;-60
2023/04/16 02:30:11;;;;;;;0.80;0.80;;;;;;;10.34;79.29;96505.00;5004882;28;20081;-61
2023/04/16 02:32:38;;;;;;;0.90;0.90;;;;;;;10.00;79.81;96455.63;5005693;28;20416;-61
2023/04/16 02:35:05;;;;;;;0.90;0.90;;;;;;;10.33;79.76;96531.09;5005181;28;20975;-60
2023/04/16 02:37:32;;;;;;;0.80;0.80;;;;;;;10.24;80.51;96522.28;5005801;28;20053;-60
2023/04/16 02:39:58;;;;;;;0.80;0.80;;;;;;;10.24;80.54;96522.28;5006552;28;20487;-61
2023/04/16 02:42:25;;;;;;;0.90;0.90;;;;;;;10.37;79.92;96518.06;5006842;28;20536;-62
2023/04/16 02:44:51;;;;;;;0.90;0.90;;;;;;;10.30;80.38;96509.72;5006378;28;20093;-60
2023/04/16 02:47:18;;;;;;;0.80;0.80;;;;;;;10.21;79.94;96478.78;5006116;28;20163;-60
2023/04/16 02:49:45;;;;;;;0.82;0.82;;;;;;;10.42;80.15;96505.84;4996862;28;20112;-60
2023/04/16 02:52:11;;;;;;;0.90;0.90;;;;;;;10.50;79.82;96518.56;5005383;28;20650;-61
2023/04/16 02:54:41;;;;;;;0.90;0.90;;;;;;;10.32;80.81;96512.88;5005586;28;20516;-61
2023/04/16 02:57:07;;;;;;;0.90;0.90;;;;;;;10.44;80.59;96515.38;5006095;28;20496;-60
2023/04/16 02:59:34;;;;;;;0.75;0.75;;;;;;;10.56;79.63;96512.31;5006067;28;20066;-61
2023/04/16 03:02:01;;;;;;;0.80;0.80;;;;;;;10.52;79.96;96522.56;5005950;28;20054;-60
2023/04/16 03:04:27;;;;;;;0.80;0.80;;;;;;;10.20;79.91;96481.91;5006019;28;20057;-61
2023/04/16 03:06:54;;;;;;;0.90;0.90;;;;;;;10.30;80.47;96495.88;5005187;28;20160;-60
2023/04/16 03:09:20;;;;;;;0.80;0.80;;;;;;;10.41;80.69;96521.69;5005526;28;20096;-61
2023/04/16 03:11:47;;;;;;;0.90;0.90;;;;;;;10.44;80.33;96520.91;5005865;28;20533;-60
2023/04/16 03:14:14;;;;;;;0.90;0.90;;;;;;;10.21;80.00;96478.78;5005844;28;20058;-60
2023/04/16 03:16:40;;;;;;;0.80;0.80;;;;;;;10.59;79.58;96528.16;5005539;28;20093;-60
2023/04/16 03:19:07;;;;;;;0.80;0.80;;;;;;;10.61;79.04;96509.19;5005844;28;20042;-60
2023/04/16 03:21:34;;;;;;;0.90;0.90;;;;;;;10.73;78.51;96535.00;5005354;28;20050;-61
2023/04/16 03:24:01;;;;;;;0.80;0.80;;;;;;;10.25;79.23;96474.06;4986837;28;20552;-61
2023/04/16 03:26:27;;;;;;;0.90;0.90;;;;;;;10.67;79.95;96534.53;4985956;28;20109;-60
2023/04/16 03:28:54;;;;;;;0.90;0.90;;;;;;;10.72;79.95;96536.19;4985785;28;20055;-64
2023/04/16 03:31:23;;;;;;;0.90;0.90;;;;;;;10.76;79.00;96539.75;4985732;28;20046;-61
2023/04/16 03:33:50;;;;;;;0.85;0.85;;;;;;;10.53;80.08;96526.91;4986135;28;20120;-61
2023/04/16 03:36:17;;;;;;;0.88;0.88;;;;;;;10.54;80.56;96536.81;4986264;28;20113;-60
2023/04/16 03:38:43;;;;;;;0.80;0.80;;;;;;;10.48;81.42;96538.34;4985894;28;20160;-60
2023/04/16 03:41:10;;;;;;;0.80;0.80;;;;;;;10.49;80.39;96523.34;4985952;28;20137;-60
2023/04/16 03:43:36;;;;;;;0.80;0.80;;;;;;;10.32;80.22;96490.72;4984502;28;21073;-61
2023/04/16 03:46:03;;;;;;;0.90;0.90;;;;;;;10.48;80.94;96541.09;4986049;28;20062;-62
2023/04/16 03:48:30;;;;;;;0.90;0.90;;;;;;;10.33;81.56;96528.31;4985659;28;20442;-63
2023/04/16 03:50:56;;;;;;;0.90;0.90;;;;;;;10.52;81.61;96539.19;4985404;28;20133;-62
2023/04/16 03:53:23;;;;;;;0.80;0.80;;;;;;;9.89;81.56;96436.16;4985476;28;20144;-61
2023/04/16 03:55:50;;;;;;;0.82;0.82;;;;;;;10.16;80.90;96528.94;4985535;28;20062;-62
2023/04/16 03:58:17;;;;;;;0.80;0.80;;;;;;;10.48;81.35;96538.34;4984079;28;20054;-61
2023/04/16 04:00:44;;;;;;;0.80;0.80;;;;;;;10.49;82.13;96544.69;4983912;28;20085;-62
2023/04/16 04:03:12;;;;;;;0.80;0.80;;;;;;;10.57;82.26;96544.34;4985501;28;20120;-62
2023/04/16 04:05:39;;;;;;;0.88;0.88;;;;;;;10.56;82.18;96551.06;4985398;28;20101;-61
2023/04/16 04:08:07;;;;;;;0.90;0.90;;;;;;;9.19;81.79;96333.13;4983955;28;20509;-61
2023/04/16 04:10:36;;;;;;;0.80;0.80;;;;;;;10.67;81.83;96551.16;4985075;28;20065;-63
2023/04/16 04:13:04;;;;;;;0.80;0.80;;;;;;;10.76;81.79;96559.16;4985173;28;20117;-62
2023/04/16 04:15:31;;;;;;;0.90;0.90;;;;;;;10.85;79.71;96559.63;4984726;28;20156;-61
2023/04/16 04:17:58;;;;;;;0.90;0.90;;;;;;;10.66;80.54;96561.47;4983366;28;20124;-61
2023/04/16 04:20:25;;;;;;;0.88;0.88;;;;;;;10.49;80.83;96539.16;4980410;28;20489;-61
2023/04/16 04:22:52;;;;;;;0.80;0.80;;;;;;;9.44;81.50;96395.00;4965692;28;20075;-62
2023/04/16 04:25:18;;;;;;;0.80;0.80;;;;;;;10.35;81.91;96545.34;4965738;28;20106;-62
2023/04/16 04:27:45;;;;;;;0.90;0.90;;;;;;;10.55;82.18;96568.06;4965692;28;20482;-63
2023/04/16 04:30:12;;;;;;;0.90;0.90;;;;;;;10.67;81.76;96574.13;4963926;28;20097;-60
2023/04/16 04:32:38;;;;;;;0.90;0.90;;;;;;;10.85;81.00;96567.94;4966039;28;20154;-63
2023/04/16 04:35:05;;;;;;;0.80;0.80;;;;;;;10.96;80.29;96574.34;4965595;28;20534;-62
2023/04/16 04:37:32;;;;;;;0.90;0.90;;;;;;;10.96;80.63;96574.34;4966106;28;20466;-60
2023/04/16 04:39:58;;;;;;;0.80;0.80;;;;;;;10.94;80.65;96577.50;4965469;28;20054;-63
2023/04/16 04:42:26;;;;;;;0.70;0.70;;;;;;;11.08;80.35;96585.94;4965465;28;20046;-61
2023/04/16 04:44:52;;;;;;;0.80;0.80;;;;;;;10.63;79.81;96490.22;4964043;28;20438;-62
2023/04/16 04:47:19;;;;;;;0.90;0.90;;;;;;;11.18;79.92;96570.56;4964150;28;20054;-63
2023/04/16 04:49:45;;;;;;;0.90;0.90;;;;;;;11.31;79.74;96580.16;4964081;28;20063;-61
2023/04/16 04:52:13;;;;;;;1.10;1.10;;;;;;;11.24;79.37;96557.94;4964069;28;20527;-63
2023/04/16 04:54:40;;;;;;;0.90;0.90;;;;;;;11.30;78.65;96528.66;4963943;28;20075;-63
2023/04/16 04:57:07;;;;;;;0.90;0.90;;;;;;;11.68;77.92;96558.63;4965491;28;20058;-61
2023/04/16 04:59:34;;;;;;;0.90;0.90;;;;;;;11.73;77.81;96572.09;4964985;28;20518;-61
2023/04/16 05:02:02;;;;;;;1.00;1.00;;;;;;;11.44;77.92;96514.88;4963696;28;20051;-62
2023/04/16 05:04:30;;;;;;;1.00;1.00;;;;;;;12.03;77.28;96572.63;4965298;28;20143;-60
2023/04/16 05:06:56;;;;;;;0.90;0.90;;;;;;;12.30;76.80;96564.81;4965367;28;20057;-61
2023/04/16 05:09:23;;;;;;;1.00;1.00;;;;;;;12.40;75.54;96539.00;4965162;28;20058;-62
2023/04/16 05:11:50;;;;;;;1.10;1.10;;;;;;;12.66;74.75;96555.34;4965233;28;20089;-61
2023/04/16 05:14:16;;;;;;;1.00;1.00;;;;;;;11.84;75.82;96436.97;4965199;28;20113;-61
2023/04/16 05:16:43;;;;;;;1.00;1.00;;;;;;;12.65;75.24;96556.50;4965048;28;20062;-61
2023/04/16 05:19:10;;;;;;;1.00;1.00;;;;;;;12.76;74.99;96555.34;4963845;28;20153;-60
2023/04/16 05:21:37;;;;;;;1.00;1.00;;;;;;;12.86;74.82;96560.13;4966482;28;20066;-66
2023/04/16 05:24:04;;;;;;;1.00;1.00;;;;;;;13.02;73.51;96568.09;4965521;28;20054;-66
2023/04/16 05:26:30;;;;;;;1.00;1.00;;;;;;;13.01;73.86;96561.72;4965525;28;20104;-66
2023/04/16 05:28:57;;;;;;;1.00;1.00;;;;;;;13.06;73.52;96557.75;4965510;28;20073;-64
2023/04/16 05:31:23;;;;;;;1.00;1.00;;;;;;;12.41;73.35;96455.28;4968281;28;20058;-66
2023/04/16 05:33:50;;;;;;;1.10;1.10;;;;;;;12.97;74.39;96544.22;4968569;28;20050;-66
2023/04/16 05:36:17;;;;;;;1.10;1.10;;;;;;;13.21;73.30;96562.91;4967134;28;20498;-66
2023/04/16 05:38:43;;;;;;;1.08;1.08;;;;;;;13.21;72.86;96531.53;4967361;28;20149;-66
2023/04/16 05:41:10;;;;;;;1.10;1.10;;;;;;;13.34;72.21;96549.41;4968620;28;20050;-65
2023/04/16 05:43:37;;;;;;;1.20;1.20;;;;;;;13.38;72.81;96552.94;4966870;28;20501;-65
2023/04/16 05:46:03;;;;;;;1.10;1.10;;;;;;;13.45;72.36;96553.72;4968607;28;20573;-65
2023/04/16 05:48:30;;;;;;;1.05;1.05;;;;;;;13.48;72.18;96558.47;4968608;28;20058;-66
2023/04/16 05:50:57;;;;;;;1.20;1.20;;;;;;;13.34;72.61;96516.78;4967863;28;20055;-67
2023/04/16 05:53:23;;;;;;;1.20;1.20;;;;;;;13.61;72.82;96553.28;4968082;28;20568;-67
2023/04/16 05:55:50;;;;;;;1.17;1.17;;;;;;;13.52;73.86;96553.72;4966852;28;20490;-67
2023/04/16 05:58:17;;;;;;;1.00;1.00;;;;;;;13.45;74.43;96558.50;4967952;28;20051;-66
2023/04/16 06:00:44;;;;;;;1.10;1.10;;;;;;;13.14;75.04;96515.63;4968105;28;20051;-67
2023/04/16 06:03:10;;;;;;;1.20;1.20;;;;;;;13.41;75.96;96552.94;4967067;28;20546;-65
2023/04/16 06:05:37;;;;;;;1.20;1.20;;;;;;;13.29;77.16;96560.91;4968197;28;20758;-67
2023/04/16 06:08:04;;;;;;;1.10;1.10;;;;;;;13.33;77.55;96556.94;4968133;28;20047;-67
2023/04/16 06:10:31;;;;;;;1.10;1.10;;;;;;;13.43;77.67;96547.78;4968177;28;20062;-66
2023/04/16 06:12:57;;;;;;;1.20;1.20;;;;;;;13.60;77.77;96560.06;4966855;28;20568;-66
2023/04/16 06:15:24;;;;;;;1.13;1.13;;;;;;;13.69;76.86;96535.38;4967716;28;20145;-65
2023/04/16 06:17:51;;;;;;;1.10;1.10;;;;;;;12.95;80.70;96518.81;4968182;28;20047;-65
2023/04/16 06:20:17;;;;;;;1.10;1.10;;;;;;;12.85;82.23;96564.06;4967761;28;20078;-65
2023/04/16 06:22:44;;;;;;;1.00;1.00;;;;;;;12.56;85.32;96556.91;4967907;28;20090;-66
2023/04/16 06:25:11;;;;;;;1.05;1.05;;;;;;;12.71;85.47;96557.72;4966369;28;20078;-64
2023/04/16 06:27:38;;;;;;;1.08;1.08;;;;;;;12.61;86.14;96525.16;4967732;28;20047;-66
2023/04/16 06:30:10;;;;;;;1.00;1.00;;;;;;;12.50;85.40;96483.50;4966515;28;20121;-66
2023/04/16 06:32:36;;;;;;;1.10;1.10;;;;;;;12.43;88.85;96541.81;4967843;28;20065;-65
2023/04/16 06:35:04;;;;;;;1.00;1.00;;;;;;;12.67;91.11;96554.13;4967595;28;20062;-65
2023/04/16 06:37:30;;;;;;;1.08;1.08;;;;;;;13.09;88.02;96560.53;4967782;28;20101;-67
2023/04/16 06:39:57;;;;;;;1.10;1.10;;;;;;;13.21;89.15;96554.56;4967712;28;20055;-65
2023/04/16 06:42:24;;;;;;;1.17;1.17;;;;;;;13.81;86.33;96553.63;4967485;28;20517;-65
2023/04/16 06:44:50;;;;;;;1.10;1.10;;;;;;;13.31;84.90;96481.44;4965718;28;20051;-67
2023/04/16 06:47:17;;;;;;;1.17;1.17;;;;;;;13.87;85.25;96549.22;4967631;28;20085;-66
2023/04/16 06:49:44;;;;;;;1.20;1.20;;;;;;;13.17;85.62;96470.34;4967652;28;20130;-66
2023/04/16 06:52:11;;;;;;;1.10;1.10;;;;;;;13.43;86.24;96483.00;4967710;28;20094;-66
2023/04/16 06:54:38;;;;;;;1.20;1.20;;;;;;;13.98;86.02;96558.31;4967036;28;20054;-66
2023/04/16 06:57:05;;;;;;;1.20;1.20;;;;;;;14.27;83.11;96549.50;4967141;28;20046;-64
2023/04/16 06:59:31;;;;;;;1.20;1.20;;;;;;;13.97;85.28;96528.91;4965707;28;20207;-65
2023/04/16 07:01:58;;;;;;;1.20;1.20;;;;;;;13.55;86.33;96457.50;4967213;28;20059;-64
2023/04/16 07:04:24;;;;;;;1.30;1.30;;;;;;;14.26;85.58;96520.03;4966842;28;20167;-65
2023/04/16 07:06:51;;;;;;;1.08;1.08;;;;;;;14.82;84.27;96530.00;4965752;28;20586;-65
2023/04/16 07:09:18;;;;;;;1.20;1.20;;;;;;;14.29;85.51;96535.91;4965374;28;20055;-66
2023/04/16 07:11:46;;;;;;;1.30;1.30;;;;;;;14.32;86.67;96528.75;4967030;28;20054;-64
2023/04/16 07:14:12;;;;;;;1.00;1.00;;;;;;;13.43;86.50;96428.16;4967012;28;20051;-65
2023/04/16 07:16:39;;;;;;;1.30;1.30;;;;;;;14.22;84.64;96546.28;4965255;28;20070;-65
2023/04/16 07:19:06;;;;;;;1.30;1.30;;;;;;;14.79;83.41;96536.41;4966608;28;20063;-63
2023/04/16 07:21:33;;;;;;;1.25;1.25;;;;;;;15.34;82.27;96539.09;4965419;28;20102;-65
2023/04/16 07:23:59;;;;;;;1.30;1.30;;;;;;;14.89;80.69;96541.13;4965460;28;20082;-66
2023/04/16 07:26:26;;;;;;;1.50;1.50;;;;;;;15.37;79.92;96527.91;4965104;28;20058;-66
2023/04/16 07:28:53;;;;;;;1.20;1.20;;;;;;;15.68;79.45;96532.38;4966364;28;20071;-66
2023/04/16 07:31:19;;;;;;;1.27;1.27;;;;;;;14.45;83.18;96543.78;4964776;28;20054;-66
2023/04/16 07:33:46;;;;;;;1.30;1.30;;;;;;;14.54;83.93;96552.50;4966680;28;20062;-66
2023/04/16 07:36:13;;;;;;;1.25;1.25;;;;;;;12.92;82.16;96213.84;4966441;28;20367;-66
2023/04/16 07:38:41;;;;;;;1.20;1.20;;;;;;;14.57;81.66;96524.63;4966704;28;20050;-65
2023/04/16 07:41:08;;;;;;;1.30;1.30;;;;;;;14.72;82.79;96530.88;4964772;28;20050;-65
2023/04/16 07:43:35;;;;;;;1.25;1.25;;;;;;;14.95;81.12;96494.84;4966479;28;20058;-66
2023/04/16 07:46:02;;;;;;;1.40;1.40;;;;;;;15.06;79.58;96506.69;4966416;28;20398;-65
2023/04/16 07:48:28;;;;;;;1.40;1.40;;;;;;;15.84;76.79;96532.59;4966161;28;20050;-66
2023/04/16 07:50:55;;;;;;;1.30;1.30;;;;;;;15.97;74.24;96494.53;4966383;28;20062;-66
2023/04/16 07:53:22;;;;;;;1.45;1.45;;;;;;;16.80;72.91;96523.75;4965596;28;20047;-66
2023/04/16 07:55:48;;;;;;;1.58;1.58;;;;;;;17.06;69.58;96525.69;4966110;28;20126;-66
2023/04/16 07:58:15;;;;;;;1.60;1.60;;;;;;;16.93;71.71;96521.94;4964619;28;20059;-66
2023/04/16 08:00:42;;;;;;;1.70;1.70;;;;;;;17.33;70.15;96518.03;4966309;28;20499;-65
2023/04/16 08:03:08;;;;;;;1.70;1.70;;;;;;;18.14;66.68;96517.31;4965751;28;20101;-67
2023/04/16 08:05:35;;;;;;;1.80;1.80;;;;;;;18.17;65.63;96508.03;4965902;28;20058;-67
2023/04/16 08:08:02;;;;;;;1.70;1.70;;;;;;;17.29;67.27;96445.31;4964897;28;20150;-66
2023/04/16 08:10:29;;;;;;;1.50;1.50;;;;;;;17.17;70.47;96520.72;4964063;28;20054;-65
2023/04/16 08:12:55;;;;;;;1.67;1.67;;;;;;;16.92;70.61;96515.56;4963965;28;20420;-65
2023/04/16 08:15:22;;;;;;;1.58;1.58;;;;;;;16.42;71.72;96504.28;4964161;28;20605;-65
2023/04/16 08:17:49;;;;;;;1.60;1.60;;;;;;;16.36;72.06;96455.66;4963176;28;20073;-65
2023/04/16 08:20:16;;;;;;;1.75;1.75;;;;;;;17.45;69.30;96509.06;4963354;28;20050;-67
2023/04/16 08:22:45;;;;;;;1.60;1.60;;;;;;;16.49;71.94;96470.69;4964246;28;20050;-67
2023/04/16 08:25:11;;;;;;;1.60;1.60;;;;;;;16.86;73.10;96513.66;4963881;28;20069;-66
2023/04/16 08:27:38;;;;;;;1.70;1.70;;;;;;;16.67;71.55;96475.19;4963939;28;20482;-67
2023/04/16 08:30:06;;;;;;;1.50;1.50;;;;;;;17.12;69.74;96510.81;4963913;28;20055;-67
2023/04/16 08:32:32;;;;;;;1.48;1.48;;;;;;;17.47;69.73;96496.22;4964106;28;20058;-65
2023/04/16 08:34:59;;;;;;;1.70;1.70;;;;;;;17.90;68.91;96512.97;4964123;28;20051;-66
2023/04/16 08:37:26;;;;;;;1.45;1.45;;;;;;;17.33;68.93;96456.44;4962365;28;20113;-66
2023/04/16 08:39:53;;;;;;;1.90;1.90;;;;;;;17.29;69.68;96438.94;4965049;28;20069;-67
2023/04/16 08:42:30;;;;;;;1.70;1.70;;;;;;;17.25;71.84;96497.00;4964205;28;20540;-66
2023/04/16 08:45:06;;;;;;;1.58;1.58;;;;;;;17.78;70.18;96513.63;4964351;28;20145;-67
2023/04/16 08:47:37;;;;;;;1.60;1.60;;;;;;;17.64;68.93;96455.09;4973685;28;20065;-67
2023/04/16 08:50:05;;;;;;;1.70;1.70;;;;;;;18.11;68.72;96512.56;4965098;28;20061;-67
2023/04/16 08:52:36;;;;;;;1.65;1.65;;;;;;;18.00;68.36;96512.00;4965468;28;20418;-68
2023/04/16 08:55:12;;;;;;;1.90;1.90;;;;;;;18.16;67.13;96520.47;4965609;28;20054;-67
2023/04/16 08:57:46;;;;;;;1.73;1.73;;;;;;;17.22;70.37;96450.25;4965506;28;20497;-65
2023/04/16 09:00:13;;;;;;;1.70;1.70;;;;;;;17.41;67.87;96446.69;4980168;28;20090;-67
2023/04/16 09:02:41;;;;;;;1.70;1.70;;;;;;;18.19;65.01;96491.56;4965272;28;20050;-66
2023/04/16 09:05:10;;;;;;;1.75;1.75;;;;;;;18.34;64.60;96492.03;4982495;28;20600;-67
2023/04/16 09:07:37;;;;;;;2.00;2.00;;;;;;;18.04;66.31;96479.06;4983669;28;20389;-67
2023/04/16 09:10:07;;;;;;;1.83;1.83;;;;;;;18.42;66.50;96544.75;4969401;28;20058;-67
2023/04/16 09:12:34;;;;;;;2.17;2.17;;;;;;;18.50;63.83;96433.19;4983779;28;20121;-65
2023/04/16 09:15:02;;;;;;;1.80;1.80;;;;;;;18.25;64.03;96444.97;4967516;28;20062;-66
2023/04/16 09:17:29;;;;;;;1.90;1.90;;;;;;;17.79;68.68;96492.78;4969107;28;20051;-65
2023/04/16 09:19:55;;;;;;;1.80;1.80;;;;;;;17.38;67.38;96419.56;4967051;28;20576;-69
2023/04/16 09:22:22;;;;;;;1.65;1.65;;;;;;;17.11;70.61;96449.66;4968522;28;20576;-68
2023/04/16 09:24:49;;;;;;;1.60;1.60;;;;;;;16.93;69.84;96483.53;4966045;28;20673;-69
2023/04/16 09:27:16;;;;;;;1.77;1.77;;;;;;;17.53;70.80;96493.72;4967258;28;20055;-67
2023/04/16 09:29:43;;;;;;;1.80;1.80;;;;;;;17.88;69.66;96493.00;4965434;28;20406;-67
2023/04/16 09:32:11;;;;;;;1.70;1.70;;;;;;;17.49;70.34;96487.38;4965455;28;20469;-69
2023/04/16 09:34:55;;;;;;;1.80;1.80;;;;;;;16.40;71.73;96378.13;4966800;28;20149;-69
2023/04/16 09:37:23;;;;;;;1.70;1.70;;;;;;;17.17;72.85;96481.53;4966954;28;20109;-68
2023/04/16 09:39:55;;;;;;;1.60;1.60;;;;;;;16.70;75.59;96474.34;4965377;28;20059;-69
2023/04/16 09:42:24;;;;;;;1.75;1.75;;;;;;;16.91;73.09;96416.06;4967063;28;20061;-68
2023/04/16 09:44:51;;;;;;;1.70;1.70;;;;;;;16.73;74.88;96490.28;4966731;28;20157;-69
2023/04/16 09:47:18;;;;;;;1.50;1.50;;;;;;;16.59;76.84;96480.91;4967061;28;20058;-67
2023/04/16 09:49:46;;;;;;;1.60;1.60;;;;;;;16.34;78.50;96474.84;4967192;28;20058;-68
2023/04/16 09:52:19;;;;;;;1.50;1.50;;;;;;;15.99;79.08;96450.22;4966947;28;20055;-69
2023/04/16 09:54:50;;;;;;;1.60;1.60;;;;;;;16.47;78.83;96478.69;4968597;28;20062;-67
2023/04/16 09:57:20;;;;;;;1.73;1.73;;;;;;;16.86;77.74;96477.28;4968337;28;20050;-67
2023/04/16 10:00:08;;;;;;;1.67;1.67;;;;;;;17.36;75.28;96473.19;4968490;28;20604;-67
2023/04/16 10:02:37;;;;;;;1.70;1.70;;;;;;;16.74;76.97;96469.50;4968252;28;20746;-68
2023/04/16 10:05:05;;;;;;;1.77;1.77;;;;;;;16.85;78.19;96475.72;4966324;28;20419;-67
2023/04/16 10:07:36;;;;;;;1.70;1.70;;;;;;;17.12;76.98;96476.44;4968048;28;20058;-67
2023/04/16 10:10:03;;;;;;;1.80;1.80;;;;;;;17.27;77.57;96461.78;4967668;28;20070;-67
2023/04/16 10:12:31;;;;;;;1.70;1.70;;;;;;;16.67;76.86;96447.22;4966839;28;20058;-66
2023/04/16 10:14:58;;;;;;;1.50;1.50;;;;;;;17.05;75.69;96462.56;4966632;28;20059;-66
2023/04/16 10:17:28;;;;;;;1.80;1.80;;;;;;;16.68;77.00;96434.84;4966232;28;20058;-66
2023/04/16 10:19:57;;;;;;;1.77;1.77;;;;;;;17.10;75.33;96476.88;4968575;28;20061;-66
2023/04/16 10:22:25;;;;;;;1.80;1.80;;;;;;;17.46;75.14;96471.44;4968095;28;20081;-67
2023/04/16 10:24:53;;;;;;;1.80;1.80;;;;;;;16.75;77.93;96465.47;4966584;28;20651;-68
2023/04/16 10:27:20;;;;;;;1.70;1.70;;;;;;;16.49;79.29;96465.09;4967993;28;20134;-67
2023/04/16 10:29:48;;;;;;;1.50;1.50;;;;;;;16.13;78.21;96341.06;4968190;28;20386;-65
2023/04/16 10:32:16;;;;;;;1.50;1.50;;;;;;;16.93;77.12;96461.16;4966833;28;20062;-67
2023/04/16 10:34:44;;;;;;;1.77;1.77;;;;;;;16.97;77.48;96466.69;4966195;28;20604;-66
2023/04/16 10:37:11;;;;;;;1.70;1.70;;;;;;;17.20;75.77;96458.31;4966073;28;20054;-67
2023/04/16 10:39:38;;;;;;;1.77;1.77;;;;;;;17.57;74.99;96460.81;4966604;28;20046;-67
2023/04/16 10:42:08;;;;;;;1.70;1.70;;;;;;;17.22;74.26;96455.84;4967322;28;20521;-66
2023/04/16 10:44:35;;;;;;;1.70;1.70;;;;;;;16.91;75.98;96469.22;4967234;28;20051;-67
2023/04/16 10:47:08;;;;;;;1.80;1.80;;;;;;;17.16;75.64;96451.97;4967647;28;20142;-67
2023/04/16 10:49:35;;;;;;;1.80;1.80;;;;;;;17.39;74.34;96463.13;4967536;28;20141;-68
2023/04/16 10:52:15;;;;;;;1.63;1.63;;;;;;;17.04;72.90;96416.22;4967859;28;20059;-67
2023/04/16 10:54:42;;;;;;;1.50;1.50;;;;;;;16.35;75.19;96380.63;4966040;28;20047;-67
2023/04/16 10:57:15;;;;;;;1.90;1.90;;;;;;;16.36;75.21;96380.19;4965708;28;20066;-67
2023/04/16 10:59:43;;;;;;;1.67;1.67;;;;;;;17.53;72.91;96457.31;4967330;28;20121;-67
2023/04/16 11:02:16;;;;;;;1.98;1.98;;;;;;;17.69;71.30;96412.53;4967502;28;20117;-66
2023/04/16 11:04:45;;;;;;;1.73;1.73;;;;;;;17.94;70.49;96463.28;4967778;28;20078;-67
2023/04/16 11:07:16;;;;;;;1.70;1.70;;;;;;;17.94;69.58;96385.56;4966245;28;20070;-68
2023/04/16 11:09:52;;;;;;;1.80;1.80;;;;;;;18.99;66.36;96499.34;4965815;28;20120;-68
2023/04/16 11:12:43;;;;;;;2.00;2.00;;;;;;;19.28;64.68;96456.09;4965754;28;20066;-67
2023/04/16 11:15:12;;;;;;;1.80;1.80;;;;;;;17.94;69.67;96450.03;4965469;28;20062;-67
2023/04/16 11:17:42;;;;;;;1.80;1.80;;;;;;;18.39;68.27;96450.28;4965572;28;20402;-69
2023/04/16 11:20:15;;;;;;;1.90;1.90;;;;;;;18.46;67.24;96443.72;4965676;28;20051;-68
2023/04/16 11:22:46;;;;;;;1.92;1.92;;;;;;;19.11;63.82;96434.84;4965422;28;20098;-67
2023/04/16 11:25:38;;;;;;;1.80;1.80;;;;;;;19.38;55.27;96442.97;4967409;28;20054;-67
2023/04/16 11:28:04;;;;;;;2.10;2.10;;;;;;;20.16;50.21;96430.34;4964501;28;20830;-67
2023/04/16 11:30:37;;;;;;;2.20;2.20;;;;;;;20.38;46.98;96431.25;4965209;28;20082;-66
2023/04/16 11:33:08;;;;;;;2.00;2.00;;;;;;;20.50;46.88;96427.69;4966392;28;20063;-67
2023/04/16 11:35:35;;;;;;;2.10;2.10;;;;;;;21.37;44.78;96417.53;4964732;28;20042;-67